sensor_id;sensor_type;location;lat;lon;timestamp;temperature;humidity
45096;DHT22;30858;51.108;8.068;2023-05-31T00:01:35;10.50;99.90
45096;DHT22;30858;51.108;8.068;2023-05-31T00:04:01;10.50;99.90
45096;DHT22;30858;51.108;8.068;2023-05-31T00:06:27;10.30;99.90
45096;DHT22;30858;51.108;8.068;2023-05-31T00:08:53;10.30;99.90
45096;DHT22;30858;51.108;8.068;2023-05-31T00:11:18;10.20;99.90
45096;DHT22;30858;51.108;8.068;2023-05-31T00:13:44;10.20;99.90
45096;DHT22;30858;51.108;8.068;2023-05-31T00:16:10;10.20;99.90
45096;DHT22;30858;51.108;8.068;2023-05-31T00:18:36;10.20;99.90
45096;DHT22;30858;51.108;8.068;2023-05-31T00:21:02;10.10;99.90
45096;DHT22;30858;51.108;8.068;2023-05-31T00:23:27;10.10;99.90
45096;DHT22;30858;51.108;8.068;2023-05-31T00:25:53;10.20;99.90
45096;DHT22;30858;51.108;8.068;2023-05-31T00:28:18;10.10;99.90
45096;DHT22;30858;51.108;8.068;2023-05-31T00:30:44;10.10;99.90
45096;DHT22;30858;51.108;8.068;2023-05-31T00:33:11;10.10;99.90
45096;DHT22;30858;51.108;8.068;2023-05-31T00:35:36;10.00;99.90
45096;DHT22;30858;51.108;8.068;2023-05-31T00:38:05;10.00;99.90
45096;DHT22;30858;51.108;8.068;2023-05-31T00:40:31;9.90;99.90
45096;DHT22;30858;51.108;8.068;2023-05-31T00:42:56;9.90;99.90
45096;DHT22;30858;51.108;8.068;2023-05-31T00:45:22;9.90;99.90
45096;DHT22;30858;51.108;8.068;2023-05-31T00:47:48;9.90;99.90
45096;DHT22;30858;51.108;8.068;2023-05-31T00:50:14;9.90;99.90
45096;DHT22;30858;51.108;8.068;2023-05-31T00:52:43;9.80;99.90
45096;DHT22;30858;51.108;8.068;2023-05-31T00:55:10;9.80;99.90
45096;DHT22;30858;51.108;8.068;2023-05-31T00:57:36;9.90;99.90
45096;DHT22;30858;51.108;8.068;2023-05-31T01:00:02;9.80;99.90
45096;DHT22;30858;51.108;8.068;2023-05-31T01:02:30;9.80;99.90
45096;DHT22;30858;51.108;8.068;2023-05-31T01:04:58;9.70;99.90
45096;DHT22;30858;51.108;8.068;2023-05-31T01:07:24;9.60;99.90
45096;DHT22;30858;51.108;8.068;2023-05-31T01:09:50;9.60;99.90
45096;DHT22;30858;51.108;8.068;2023-05-31T01:12:30;9.50;99.90
45096;DHT22;30858;51.108;8.068;2023-05-31T01:15:16;9.50;99.90
45096;DHT22;30858;51.108;8.068;2023-05-31T01:17:54;9.60;99.90
45096;DHT22;30858;51.108;8.068;2023-05-31T01:20:30;9.50;99.90
45096;DHT22;30858;51.108;8.068;2023-05-31T01:28:53;9.40;99.90
45096;DHT22;30858;51.108;8.068;2023-05-31T01:31:21;9.40;99.90
45096;DHT22;30858;51.108;8.068;2023-05-31T01:33:48;9.30;99.90
45096;DHT22;30858;51.108;8.068;2023-05-31T01:36:14;9.30;99.90
45096;DHT22;30858;51.108;8.068;2023-05-31T01:38:40;9.30;99.90
45096;DHT22;30858;51.108;8.068;2023-05-31T01:41:06;9.40;99.90
45096;DHT22;30858;51.108;8.068;2023-05-31T01:43:33;9.30;99.90
45096;DHT22;30858;51.108;8.068;2023-05-31T01:46:00;9.30;99.90
45096;DHT22;30858;51.108;8.068;2023-05-31T01:48:27;9.20;99.90
45096;DHT22;30858;51.108;8.068;2023-05-31T01:50:54;9.20;99.90
45096;DHT22;30858;51.108;8.068;2023-05-31T01:53:20;9.20;99.90
45096;DHT22;30858;51.108;8.068;2023-05-31T01:55:46;9.20;99.90
45096;DHT22;30858;51.108;8.068;2023-05-31T01:58:13;9.20;99.90
45096;DHT22;30858;51.108;8.068;2023-05-31T02:00:40;9.30;99.90
45096;DHT22;30858;51.108;8.068;2023-05-31T02:03:05;9.30;99.90
45096;DHT22;30858;51.108;8.068;2023-05-31T02:05:31;9.20;99.90
45096;DHT22;30858;51.108;8.068;2023-05-31T02:07:57;9.20;99.90
45096;DHT22;30858;51.108;8.068;2023-05-31T02:10:22;9.20;99.90
45096;DHT22;30858;51.108;8.068;2023-05-31T02:12:48;9.10;99.90
45096;DHT22;30858;51.108;8.068;2023-05-31T02:15:19;9.10;99.90
45096;DHT22;30858;51.108;8.068;2023-05-31T02:17:45;9.00;99.90
45096;DHT22;30858;51.108;8.068;2023-05-31T02:20:13;9.00;99.90
45096;DHT22;30858;51.108;8.068;2023-05-31T02:22:40;8.90;99.90
45096;DHT22;30858;51.108;8.068;2023-05-31T02:25:08;8.90;99.90
45096;DHT22;30858;51.108;8.068;2023-05-31T02:27:33;8.90;99.90
45096;DHT22;30858;51.108;8.068;2023-05-31T02:29:59;8.80;99.90
45096;DHT22;30858;51.108;8.068;2023-05-31T02:32:25;8.80;99.90
45096;DHT22;30858;51.108;8.068;2023-05-31T02:34:50;8.70;99.90
45096;DHT22;30858;51.108;8.068;2023-05-31T02:37:16;8.80;99.90
45096;DHT22;30858;51.108;8.068;2023-05-31T02:39:41;8.80;99.90
45096;DHT22;30858;51.108;8.068;2023-05-31T02:42:07;8.70;99.90
45096;DHT22;30858;51.108;8.068;2023-05-31T02:44:33;8.60;99.90
45096;DHT22;30858;51.108;8.068;2023-05-31T02:46:58;8.60;99.90
45096;DHT22;30858;51.108;8.068;2023-05-31T02:49:24;8.50;99.90
45096;DHT22;30858;51.108;8.068;2023-05-31T02:51:49;8.50;99.90
45096;DHT22;30858;51.108;8.068;2023-05-31T02:54:15;8.40;99.90
45096;DHT22;30858;51.108;8.068;2023-05-31T02:56:41;8.40;99.90
45096;DHT22;30858;51.108;8.068;2023-05-31T02:59:06;8.40;99.90
45096;DHT22;30858;51.108;8.068;2023-05-31T03:01:32;8.40;99.90
45096;DHT22;30858;51.108;8.068;2023-05-31T03:03:59;8.40;99.90
45096;DHT22;30858;51.108;8.068;2023-05-31T03:06:24;8.30;99.90
45096;DHT22;30858;51.108;8.068;2023-05-31T03:08:50;8.30;99.90
45096;DHT22;30858;51.108;8.068;2023-05-31T03:11:15;8.30;99.90
45096;DHT22;30858;51.108;8.068;2023-05-31T03:13:41;8.20;99.90
45096;DHT22;30858;51.108;8.068;2023-05-31T03:16:06;8.30;99.90
45096;DHT22;30858;51.108;8.068;2023-05-31T03:18:32;8.20;99.90
45096;DHT22;30858;51.108;8.068;2023-05-31T03:20:57;8.30;99.90
45096;DHT22;30858;51.108;8.068;2023-05-31T03:23:23;8.20;99.90
45096;DHT22;30858;51.108;8.068;2023-05-31T03:25:48;8.20;99.90
45096;DHT22;30858;51.108;8.068;2023-05-31T03:28:14;8.20;99.90
45096;DHT22;30858;51.108;8.068;2023-05-31T03:30:40;8.20;99.90
45096;DHT22;30858;51.108;8.068;2023-05-31T03:33:05;8.10;99.90
45096;DHT22;30858;51.108;8.068;2023-05-31T03:35:31;8.20;99.90
45096;DHT22;30858;51.108;8.068;2023-05-31T03:37:56;8.20;99.90
45096;DHT22;30858;51.108;8.068;2023-05-31T03:40:22;8.20;99.90
45096;DHT22;30858;51.108;8.068;2023-05-31T03:42:48;8.30;99.90
45096;DHT22;30858;51.108;8.068;2023-05-31T03:45:13;8.30;99.90
45096;DHT22;30858;51.108;8.068;2023-05-31T03:47:39;8.20;99.90
45096;DHT22;30858;51.108;8.068;2023-05-31T03:50:05;8.20;99.90
45096;DHT22;30858;51.108;8.068;2023-05-31T03:52:31;8.10;99.90
45096;DHT22;30858;51.108;8.068;2023-05-31T03:54:57;8.10;99.90
45096;DHT22;30858;51.108;8.068;2023-05-31T03:57:22;8.10;99.90
45096;DHT22;30858;51.108;8.068;2023-05-31T03:59:48;8.10;99.90
45096;DHT22;30858;51.108;8.068;2023-05-31T04:02:13;8.10;99.90
45096;DHT22;30858;51.108;8.068;2023-05-31T04:04:39;8.10;99.90
45096;DHT22;30858;51.108;8.068;2023-05-31T04:07:04;8.10;99.90
45096;DHT22;30858;51.108;8.068;2023-05-31T04:09:30;8.00;99.90
45096;DHT22;30858;51.108;8.068;2023-05-31T04:11:56;8.00;99.90
45096;DHT22;30858;51.108;8.068;2023-05-31T04:14:22;8.00;99.90
45096;DHT22;30858;51.108;8.068;2023-05-31T04:16:47;8.10;99.90
45096;DHT22;30858;51.108;8.068;2023-05-31T04:19:13;8.10;99.90
45096;DHT22;30858;51.108;8.068;2023-05-31T04:21:38;8.20;99.90
45096;DHT22;30858;51.108;8.068;2023-05-31T04:24:05;8.20;99.90
45096;DHT22;30858;51.108;8.068;2023-05-31T04:26:30;8.20;99.90
45096;DHT22;30858;51.108;8.068;2023-05-31T04:28:57;8.20;99.90
45096;DHT22;30858;51.108;8.068;2023-05-31T04:31:23;8.20;99.90
45096;DHT22;30858;51.108;8.068;2023-05-31T04:33:54;8.20;99.90
45096;DHT22;30858;51.108;8.068;2023-05-31T04:36:23;8.20;99.90
45096;DHT22;30858;51.108;8.068;2023-05-31T04:38:49;8.20;99.90
45096;DHT22;30858;51.108;8.068;2023-05-31T04:41:16;8.30;99.90
45096;DHT22;30858;51.108;8.068;2023-05-31T04:43:42;8.40;99.90
45096;DHT22;30858;51.108;8.068;2023-05-31T04:46:08;8.50;99.90
45096;DHT22;30858;51.108;8.068;2023-05-31T04:48:35;8.60;99.90
45096;DHT22;30858;51.108;8.068;2023-05-31T04:51:01;8.70;99.90
45096;DHT22;30858;51.108;8.068;2023-05-31T04:53:27;8.60;99.90
45096;DHT22;30858;51.108;8.068;2023-05-31T04:55:52;8.60;99.90
45096;DHT22;30858;51.108;8.068;2023-05-31T04:58:18;8.60;99.90
45096;DHT22;30858;51.108;8.068;2023-05-31T05:00:45;8.80;99.90
45096;DHT22;30858;51.108;8.068;2023-05-31T05:03:11;8.90;99.90
45096;DHT22;30858;51.108;8.068;2023-05-31T05:05:37;9.00;99.90
45096;DHT22;30858;51.108;8.068;2023-05-31T05:08:03;9.10;99.90
45096;DHT22;30858;51.108;8.068;2023-05-31T05:10:28;9.10;99.90
45096;DHT22;30858;51.108;8.068;2023-05-31T05:12:54;9.20;99.90
45096;DHT22;30858;51.108;8.068;2023-05-31T05:15:20;9.30;99.90
45096;DHT22;30858;51.108;8.068;2023-05-31T05:17:45;9.50;99.90
45096;DHT22;30858;51.108;8.068;2023-05-31T05:20:11;9.60;99.90
45096;DHT22;30858;51.108;8.068;2023-05-31T05:22:38;9.80;99.90
45096;DHT22;30858;51.108;8.068;2023-05-31T05:25:03;9.80;99.90
45096;DHT22;30858;51.108;8.068;2023-05-31T05:27:29;10.00;99.90
45096;DHT22;30858;51.108;8.068;2023-05-31T05:29:55;10.20;99.90
45096;DHT22;30858;51.108;8.068;2023-05-31T05:32:21;10.40;99.90
45096;DHT22;30858;51.108;8.068;2023-05-31T05:34:46;10.50;99.90
45096;DHT22;30858;51.108;8.068;2023-05-31T05:37:12;10.70;99.90
45096;DHT22;30858;51.108;8.068;2023-05-31T05:39:37;10.90;99.90
45096;DHT22;30858;51.108;8.068;2023-05-31T05:42:03;11.00;99.90
45096;DHT22;30858;51.108;8.068;2023-05-31T05:44:29;11.10;99.90
45096;DHT22;30858;51.108;8.068;2023-05-31T05:46:54;11.30;99.90
45096;DHT22;30858;51.108;8.068;2023-05-31T05:49:21;11.40;99.90
45096;DHT22;30858;51.108;8.068;2023-05-31T05:51:46;11.60;99.90
45096;DHT22;30858;51.108;8.068;2023-05-31T05:54:12;11.80;99.90
45096;DHT22;30858;51.108;8.068;2023-05-31T05:56:38;12.00;99.90
45096;DHT22;30858;51.108;8.068;2023-05-31T05:59:03;12.10;99.90
45096;DHT22;30858;51.108;8.068;2023-05-31T06:01:29;12.20;99.90
45096;DHT22;30858;51.108;8.068;2023-05-31T06:03:55;12.40;99.90
45096;DHT22;30858;51.108;8.068;2023-05-31T06:06:21;12.60;99.90
45096;DHT22;30858;51.108;8.068;2023-05-31T06:08:46;12.70;99.90
45096;DHT22;30858;51.108;8.068;2023-05-31T06:11:12;13.00;99.90
45096;DHT22;30858;51.108;8.068;2023-05-31T06:13:42;13.20;99.90
45096;DHT22;30858;51.108;8.068;2023-05-31T06:16:07;13.40;99.90
45096;DHT22;30858;51.108;8.068;2023-05-31T06:18:33;13.50;99.90
45096;DHT22;30858;51.108;8.068;2023-05-31T06:21:00;13.60;99.90
45096;DHT22;30858;51.108;8.068;2023-05-31T06:23:25;13.80;99.90
45096;DHT22;30858;51.108;8.068;2023-05-31T06:25:51;13.80;99.90
45096;DHT22;30858;51.108;8.068;2023-05-31T06:28:17;14.10;99.90
45096;DHT22;30858;51.108;8.068;2023-05-31T06:30:42;14.10;99.90
45096;DHT22;30858;51.108;8.068;2023-05-31T06:33:08;14.40;99.90
45096;DHT22;30858;51.108;8.068;2023-05-31T06:35:33;14.70;99.90
45096;DHT22;30858;51.108;8.068;2023-05-31T06:37:59;14.90;99.90
45096;DHT22;30858;51.108;8.068;2023-05-31T06:40:25;15.20;99.90
45096;DHT22;30858;51.108;8.068;2023-05-31T06:42:51;15.40;99.90
45096;DHT22;30858;51.108;8.068;2023-05-31T06:45:16;15.70;99.90
45096;DHT22;30858;51.108;8.068;2023-05-31T06:47:42;15.80;99.90
45096;DHT22;30858;51.108;8.068;2023-05-31T06:50:10;16.10;99.90
45096;DHT22;30858;51.108;8.068;2023-05-31T06:52:36;16.50;99.90
45096;DHT22;30858;51.108;8.068;2023-05-31T06:55:01;16.70;99.90
45096;DHT22;30858;51.108;8.068;2023-05-31T06:57:27;17.00;99.90
45096;DHT22;30858;51.108;8.068;2023-05-31T06:59:52;17.00;99.90
45096;DHT22;30858;51.108;8.068;2023-05-31T07:02:19;17.10;99.90
45096;DHT22;30858;51.108;8.068;2023-05-31T07:04:44;17.30;99.90
45096;DHT22;30858;51.108;8.068;2023-05-31T07:07:10;17.50;99.90
45096;DHT22;30858;51.108;8.068;2023-05-31T07:09:36;17.70;99.90
45096;DHT22;30858;51.108;8.068;2023-05-31T07:12:01;17.90;99.90
45096;DHT22;30858;51.108;8.068;2023-05-31T07:14:28;18.00;99.90
45096;DHT22;30858;51.108;8.068;2023-05-31T07:16:54;18.20;99.90
45096;DHT22;30858;51.108;8.068;2023-05-31T07:19:19;18.50;99.90
45096;DHT22;30858;51.108;8.068;2023-05-31T07:21:45;18.70;99.90
45096;DHT22;30858;51.108;8.068;2023-05-31T07:24:11;19.10;99.90
45096;DHT22;30858;51.108;8.068;2023-05-31T07:26:37;19.10;99.90
45096;DHT22;30858;51.108;8.068;2023-05-31T07:29:02;19.50;99.90
45096;DHT22;30858;51.108;8.068;2023-05-31T07:31:28;19.60;99.90
45096;DHT22;30858;51.108;8.068;2023-05-31T07:33:53;19.90;99.90
45096;DHT22;30858;51.108;8.068;2023-05-31T07:36:20;20.30;99.90
45096;DHT22;30858;51.108;8.068;2023-05-31T07:38:50;20.60;99.90
45096;DHT22;30858;51.108;8.068;2023-05-31T07:41:15;20.80;99.90
45096;DHT22;30858;51.108;8.068;2023-05-31T07:43:41;20.70;97.30
45096;DHT22;30858;51.108;8.068;2023-05-31T07:46:08;20.80;97.70
45096;DHT22;30858;51.108;8.068;2023-05-31T07:48:34;21.10;95.90
45096;DHT22;30858;51.108;8.068;2023-05-31T07:50:59;21.10;96.20
45096;DHT22;30858;51.108;8.068;2023-05-31T07:53:25;21.40;93.80
45096;DHT22;30858;51.108;8.068;2023-05-31T07:55:51;21.10;93.10
45096;DHT22;30858;51.108;8.068;2023-05-31T07:58:16;20.90;93.40
45096;DHT22;30858;51.108;8.068;2023-05-31T08:00:42;21.10;92.10
45096;DHT22;30858;51.108;8.068;2023-05-31T08:03:07;21.50;92.90
45096;DHT22;30858;51.108;8.068;2023-05-31T08:05:33;21.70;91.30
45096;DHT22;30858;51.108;8.068;2023-05-31T08:07:58;21.80;91.20
45096;DHT22;30858;51.108;8.068;2023-05-31T08:10:24;22.20;91.10
45096;DHT22;30858;51.108;8.068;2023-05-31T08:12:50;22.10;91.00
45096;DHT22;30858;51.108;8.068;2023-05-31T08:15:15;22.10;85.10
45096;DHT22;30858;51.108;8.068;2023-05-31T08:17:41;22.30;85.80
45096;DHT22;30858;51.108;8.068;2023-05-31T08:20:10;22.30;88.00
45096;DHT22;30858;51.108;8.068;2023-05-31T08:22:35;22.40;85.00
45096;DHT22;30858;51.108;8.068;2023-05-31T08:25:01;22.50;86.30
45096;DHT22;30858;51.108;8.068;2023-05-31T08:27:27;22.60;84.30
45096;DHT22;30858;51.108;8.068;2023-05-31T08:29:53;22.30;83.60
45096;DHT22;30858;51.108;8.068;2023-05-31T08:32:19;22.60;86.00
45096;DHT22;30858;51.108;8.068;2023-05-31T08:34:45;22.60;81.10
45096;DHT22;30858;51.108;8.068;2023-05-31T08:37:12;22.60;78.80
45096;DHT22;30858;51.108;8.068;2023-05-31T08:39:37;22.80;78.00
45096;DHT22;30858;51.108;8.068;2023-05-31T08:42:04;22.90;76.70
45096;DHT22;30858;51.108;8.068;2023-05-31T08:44:31;22.80;75.90
45096;DHT22;30858;51.108;8.068;2023-05-31T08:46:59;22.90;74.80
45096;DHT22;30858;51.108;8.068;2023-05-31T08:49:28;22.80;75.60
45096;DHT22;30858;51.108;8.068;2023-05-31T08:51:56;22.80;74.70
45096;DHT22;30858;51.108;8.068;2023-05-31T08:54:23;23.10;75.60
45096;DHT22;30858;51.108;8.068;2023-05-31T08:56:50;23.30;78.20
45096;DHT22;30858;51.108;8.068;2023-05-31T08:59:17;23.20;72.80
45096;DHT22;30858;51.108;8.068;2023-05-31T09:01:43;22.60;73.90
45096;DHT22;30858;51.108;8.068;2023-05-31T09:04:09;23.00;75.20
45096;DHT22;30858;51.108;8.068;2023-05-31T09:06:35;23.30;75.40
45096;DHT22;30858;51.108;8.068;2023-05-31T09:09:02;23.40;74.80
45096;DHT22;30858;51.108;8.068;2023-05-31T09:11:28;23.10;73.70
45096;DHT22;30858;51.108;8.068;2023-05-31T09:13:54;23.30;72.50
45096;DHT22;30858;51.108;8.068;2023-05-31T09:16:20;23.40;73.10
45096;DHT22;30858;51.108;8.068;2023-05-31T09:18:47;23.60;71.80
45096;DHT22;30858;51.108;8.068;2023-05-31T09:21:13;23.50;71.50
45096;DHT22;30858;51.108;8.068;2023-05-31T09:23:53;23.60;73.20
45096;DHT22;30858;51.108;8.068;2023-05-31T09:26:18;23.40;71.80
45096;DHT22;30858;51.108;8.068;2023-05-31T09:28:49;23.50;70.60
45096;DHT22;30858;51.108;8.068;2023-05-31T09:31:15;23.30;71.00
45096;DHT22;30858;51.108;8.068;2023-05-31T09:33:44;23.20;71.70
45096;DHT22;30858;51.108;8.068;2023-05-31T09:36:11;23.60;70.50
45096;DHT22;30858;51.108;8.068;2023-05-31T09:38:37;23.50;71.60
45096;DHT22;30858;51.108;8.068;2023-05-31T09:43:42;23.80;68.20
45096;DHT22;30858;51.108;8.068;2023-05-31T09:46:16;23.60;71.00
45096;DHT22;30858;51.108;8.068;2023-05-31T09:48:56;24.00;71.60
45096;DHT22;30858;51.108;8.068;2023-05-31T09:51:22;23.90;68.90
45096;DHT22;30858;51.108;8.068;2023-05-31T09:53:47;23.60;68.70
45096;DHT22;30858;51.108;8.068;2023-05-31T09:56:18;24.00;69.60
45096;DHT22;30858;51.108;8.068;2023-05-31T09:58:44;24.20;73.50
45096;DHT22;30858;51.108;8.068;2023-05-31T10:01:10;24.40;70.00
45096;DHT22;30858;51.108;8.068;2023-05-31T10:03:37;24.40;68.60
45096;DHT22;30858;51.108;8.068;2023-05-31T10:06:03;24.40;68.40
45096;DHT22;30858;51.108;8.068;2023-05-31T10:08:29;24.50;68.60
45096;DHT22;30858;51.108;8.068;2023-05-31T10:11:02;25.00;69.40
45096;DHT22;30858;51.108;8.068;2023-05-31T10:13:28;24.80;67.00
45096;DHT22;30858;51.108;8.068;2023-05-31T10:15:56;24.80;69.10
45096;DHT22;30858;51.108;8.068;2023-05-31T10:18:27;24.60;67.30
45096;DHT22;30858;51.108;8.068;2023-05-31T10:20:58;24.40;68.00
45096;DHT22;30858;51.108;8.068;2023-05-31T10:23:25;24.20;68.20
45096;DHT22;30858;51.108;8.068;2023-05-31T10:28:27;25.50;69.00
45096;DHT22;30858;51.108;8.068;2023-05-31T10:30:54;25.80;69.10
45096;DHT22;30858;51.108;8.068;2023-05-31T10:33:21;26.50;67.80
45096;DHT22;30858;51.108;8.068;2023-05-31T10:35:48;26.10;64.80
45096;DHT22;30858;51.108;8.068;2023-05-31T10:38:17;25.70;66.00
45096;DHT22;30858;51.108;8.068;2023-05-31T10:40:55;25.60;65.80
45096;DHT22;30858;51.108;8.068;2023-05-31T10:43:28;25.60;67.30
45096;DHT22;30858;51.108;8.068;2023-05-31T10:46:09;24.90;64.40
45096;DHT22;30858;51.108;8.068;2023-05-31T10:48:59;25.10;67.00
45096;DHT22;30858;51.108;8.068;2023-05-31T10:51:41;25.60;63.90
45096;DHT22;30858;51.108;8.068;2023-05-31T10:54:08;25.90;63.60
45096;DHT22;30858;51.108;8.068;2023-05-31T10:56:37;25.30;64.00
45096;DHT22;30858;51.108;8.068;2023-05-31T10:59:05;25.20;66.00
45096;DHT22;30858;51.108;8.068;2023-05-31T11:01:35;25.80;65.40
45096;DHT22;30858;51.108;8.068;2023-05-31T11:04:00;25.70;65.10
45096;DHT22;30858;51.108;8.068;2023-05-31T11:08:59;26.10;65.80
45096;DHT22;30858;51.108;8.068;2023-05-31T11:11:42;25.20;62.80
45096;DHT22;30858;51.108;8.068;2023-05-31T11:14:24;25.40;64.20
45096;DHT22;30858;51.108;8.068;2023-05-31T11:19:35;26.30;62.90
45096;DHT22;30858;51.108;8.068;2023-05-31T11:22:08;26.70;63.50
45096;DHT22;30858;51.108;8.068;2023-05-31T11:27:04;25.40;63.00
45096;DHT22;30858;51.108;8.068;2023-05-31T11:37:31;25.80;63.40
45096;DHT22;30858;51.108;8.068;2023-05-31T11:40:05;25.80;62.70
45096;DHT22;30858;51.108;8.068;2023-05-31T11:42:32;26.40;64.00
45096;DHT22;30858;51.108;8.068;2023-05-31T11:45:03;25.90;64.00
45096;DHT22;30858;51.108;8.068;2023-05-31T11:47:53;26.50;62.60
45096;DHT22;30858;51.108;8.068;2023-05-31T11:50:20;25.80;61.30
45096;DHT22;30858;51.108;8.068;2023-05-31T11:52:48;26.30;63.40
45096;DHT22;30858;51.108;8.068;2023-05-31T11:55:17;26.50;64.00
45096;DHT22;30858;51.108;8.068;2023-05-31T11:57:44;26.90;65.70
45096;DHT22;30858;51.108;8.068;2023-05-31T12:00:11;27.10;61.20
45096;DHT22;30858;51.108;8.068;2023-05-31T12:02:44;27.10;60.70
45096;DHT22;30858;51.108;8.068;2023-05-31T12:05:14;27.40;60.90
45096;DHT22;30858;51.108;8.068;2023-05-31T12:07:41;27.20;62.60
45096;DHT22;30858;51.108;8.068;2023-05-31T12:10:08;27.40;60.70
45096;DHT22;30858;51.108;8.068;2023-05-31T12:12:34;27.00;58.30
45096;DHT22;30858;51.108;8.068;2023-05-31T12:15:01;25.90;58.90
45096;DHT22;30858;51.108;8.068;2023-05-31T12:17:32;26.50;62.90
45096;DHT22;30858;51.108;8.068;2023-05-31T12:19:59;27.10;61.90
45096;DHT22;30858;51.108;8.068;2023-05-31T12:22:25;26.50;60.90
45096;DHT22;30858;51.108;8.068;2023-05-31T12:24:53;26.90;63.30
45096;DHT22;30858;51.108;8.068;2023-05-31T12:27:27;27.50;62.80
45096;DHT22;30858;51.108;8.068;2023-05-31T12:29:59;27.70;59.80
45096;DHT22;30858;51.108;8.068;2023-05-31T12:32:28;27.10;60.20
45096;DHT22;30858;51.108;8.068;2023-05-31T12:35:08;26.00;62.50
45096;DHT22;30858;51.108;8.068;2023-05-31T12:37:38;25.50;63.80
45096;DHT22;30858;51.108;8.068;2023-05-31T12:40:11;26.40;64.70
45096;DHT22;30858;51.108;8.068;2023-05-31T12:42:37;27.20;63.30
45096;DHT22;30858;51.108;8.068;2023-05-31T12:45:04;27.50;63.10
45096;DHT22;30858;51.108;8.068;2023-05-31T12:47:30;26.60;62.30
45096;DHT22;30858;51.108;8.068;2023-05-31T12:50:06;26.90;63.60
45096;DHT22;30858;51.108;8.068;2023-05-31T12:52:37;27.10;62.10
45096;DHT22;30858;51.108;8.068;2023-05-31T12:55:07;27.60;61.60
45096;DHT22;30858;51.108;8.068;2023-05-31T12:57:33;27.30;63.30
45096;DHT22;30858;51.108;8.068;2023-05-31T13:00:00;26.50;62.20
45096;DHT22;30858;51.108;8.068;2023-05-31T13:02:27;26.90;62.10
45096;DHT22;30858;51.108;8.068;2023-05-31T13:04:52;27.00;63.80
45096;DHT22;30858;51.108;8.068;2023-05-31T13:07:18;27.10;62.30
45096;DHT22;30858;51.108;8.068;2023-05-31T13:09:44;27.00;62.20
45096;DHT22;30858;51.108;8.068;2023-05-31T13:12:09;27.10;61.80
45096;DHT22;30858;51.108;8.068;2023-05-31T13:14:35;27.10;62.40
45096;DHT22;30858;51.108;8.068;2023-05-31T13:17:01;26.80;63.00
45096;DHT22;30858;51.108;8.068;2023-05-31T13:19:26;27.40;61.70
45096;DHT22;30858;51.108;8.068;2023-05-31T13:21:52;27.70;60.90
45096;DHT22;30858;51.108;8.068;2023-05-31T13:24:17;27.50;61.50
45096;DHT22;30858;51.108;8.068;2023-05-31T13:26:43;26.60;61.30
45096;DHT22;30858;51.108;8.068;2023-05-31T13:29:09;25.80;61.30
45096;DHT22;30858;51.108;8.068;2023-05-31T13:31:34;25.90;65.00
45096;DHT22;30858;51.108;8.068;2023-05-31T13:34:00;26.80;64.40
45096;DHT22;30858;51.108;8.068;2023-05-31T13:36:26;27.40;62.50
45096;DHT22;30858;51.108;8.068;2023-05-31T13:38:51;27.60;62.00
45096;DHT22;30858;51.108;8.068;2023-05-31T13:41:18;27.70;61.40
45096;DHT22;30858;51.108;8.068;2023-05-31T13:43:46;27.40;60.70
45096;DHT22;30858;51.108;8.068;2023-05-31T13:46:11;26.80;61.10
45096;DHT22;30858;51.108;8.068;2023-05-31T13:48:41;26.50;61.40
45096;DHT22;30858;51.108;8.068;2023-05-31T13:51:07;26.70;61.30
45096;DHT22;30858;51.108;8.068;2023-05-31T13:53:33;26.80;62.10
45096;DHT22;30858;51.108;8.068;2023-05-31T13:55:59;26.90;62.10
45096;DHT22;30858;51.108;8.068;2023-05-31T13:58:25;27.00;63.50
45096;DHT22;30858;51.108;8.068;2023-05-31T14:00:50;26.00;63.00
45096;DHT22;30858;51.108;8.068;2023-05-31T14:03:16;26.50;63.50
45096;DHT22;30858;51.108;8.068;2023-05-31T14:05:42;26.70;62.10
45096;DHT22;30858;51.108;8.068;2023-05-31T14:08:09;27.00;61.90
45096;DHT22;30858;51.108;8.068;2023-05-31T14:10:34;27.00;62.50
45096;DHT22;30858;51.108;8.068;2023-05-31T14:13:00;27.10;62.20
45096;DHT22;30858;51.108;8.068;2023-05-31T14:15:25;27.00;63.40
45096;DHT22;30858;51.108;8.068;2023-05-31T14:17:51;27.00;61.10
45096;DHT22;30858;51.108;8.068;2023-05-31T14:20:16;27.00;61.40
45096;DHT22;30858;51.108;8.068;2023-05-31T14:22:42;26.50;61.70
45096;DHT22;30858;51.108;8.068;2023-05-31T14:25:08;26.10;65.40
45096;DHT22;30858;51.108;8.068;2023-05-31T14:27:34;26.20;63.70
45096;DHT22;30858;51.108;8.068;2023-05-31T14:30:00;26.80;62.00
45096;DHT22;30858;51.108;8.068;2023-05-31T14:32:26;27.10;62.20
45096;DHT22;30858;51.108;8.068;2023-05-31T14:34:51;27.50;61.90
45096;DHT22;30858;51.108;8.068;2023-05-31T14:37:17;27.20;62.20
45096;DHT22;30858;51.108;8.068;2023-05-31T14:39:42;26.30;62.00
45096;DHT22;30858;51.108;8.068;2023-05-31T14:42:09;26.50;63.10
45096;DHT22;30858;51.108;8.068;2023-05-31T14:44:35;26.90;62.70
45096;DHT22;30858;51.108;8.068;2023-05-31T14:47:03;27.20;61.20
45096;DHT22;30858;51.108;8.068;2023-05-31T14:49:29;27.20;61.20
45096;DHT22;30858;51.108;8.068;2023-05-31T14:51:55;27.20;60.90
45096;DHT22;30858;51.108;8.068;2023-05-31T14:54:23;27.20;60.60
45096;DHT22;30858;51.108;8.068;2023-05-31T14:56:48;26.90;60.30
45096;DHT22;30858;51.108;8.068;2023-05-31T14:59:14;26.60;62.10
45096;DHT22;30858;51.108;8.068;2023-05-31T15:01:40;27.10;61.40
45096;DHT22;30858;51.108;8.068;2023-05-31T15:04:09;27.00;59.90
45096;DHT22;30858;51.108;8.068;2023-05-31T15:06:35;26.70;60.80
45096;DHT22;30858;51.108;8.068;2023-05-31T15:09:02;26.20;61.80
45096;DHT22;30858;51.108;8.068;2023-05-31T15:11:28;25.90;61.90
45096;DHT22;30858;51.108;8.068;2023-05-31T15:13:54;25.90;63.00
45096;DHT22;30858;51.108;8.068;2023-05-31T15:16:20;26.20;63.40
45096;DHT22;30858;51.108;8.068;2023-05-31T15:18:46;26.20;63.50
45096;DHT22;30858;51.108;8.068;2023-05-31T15:21:12;26.20;63.10
45096;DHT22;30858;51.108;8.068;2023-05-31T15:23:37;26.10;65.10
45096;DHT22;30858;51.108;8.068;2023-05-31T15:26:03;26.40;63.70
45096;DHT22;30858;51.108;8.068;2023-05-31T15:28:29;26.80;63.80
45096;DHT22;30858;51.108;8.068;2023-05-31T15:30:55;26.90;62.10
45096;DHT22;30858;51.108;8.068;2023-05-31T15:33:20;25.80;60.40
45096;DHT22;30858;51.108;8.068;2023-05-31T15:35:46;26.20;62.70
45096;DHT22;30858;51.108;8.068;2023-05-31T15:38:11;26.70;62.70
45096;DHT22;30858;51.108;8.068;2023-05-31T15:40:36;27.30;60.70
45096;DHT22;30858;51.108;8.068;2023-05-31T15:43:03;27.00;61.10
45096;DHT22;30858;51.108;8.068;2023-05-31T15:45:28;26.40;62.60
45096;DHT22;30858;51.108;8.068;2023-05-31T15:47:54;26.80;63.20
45096;DHT22;30858;51.108;8.068;2023-05-31T15:50:20;26.50;63.10
45096;DHT22;30858;51.108;8.068;2023-05-31T15:52:46;26.40;64.40
45096;DHT22;30858;51.108;8.068;2023-05-31T15:55:11;26.10;65.50
45096;DHT22;30858;51.108;8.068;2023-05-31T15:57:37;26.50;64.60
45096;DHT22;30858;51.108;8.068;2023-05-31T16:00:03;26.40;65.80